Time;durP1;ratioP1;P1;durP2;ratioP2;P2;SDS_P1;SDS_P2;PMS_P1;PMS_P2;Temp;Humidity;BMP_temperature;BMP_pressure;BME280_temperature;BME280_humidity;BME280_pressure;Samples;Min_cycle;Max_cycle;Signal;HPM_P1;HPM_P2
2023/03/07 00:00:43;;;;;;;4.82;2.63;;;;;;;;;;5057223;28;20029;-75
2023/03/07 00:03:13;;;;;;;4.80;2.72;;;;;;;;;;5056192;28;20027;-74
2023/03/07 00:05:39;;;;;;;5.38;3.13;;;;;;;;;;5058927;28;20029;-74
2023/03/07 00:08:04;;;;;;;4.53;2.70;;;;;;;;;;5059607;28;20035;-74
2023/03/07 00:10:29;;;;;;;4.97;2.88;;;;;;;;;;5042835;28;20480;-74
2023/03/07 00:12:55;;;;;;;5.32;2.75;;;;;;;;;;5056088;28;20048;-74
2023/03/07 00:15:21;;;;;;;5.30;2.95;;;;;;;;;;5059305;28;20029;-74
2023/03/07 00:17:46;;;;;;;5.85;3.28;;;;;;;;;;5047079;28;20017;-74
2023/03/07 00:20:14;;;;;;;5.28;2.97;;;;;;;;;;5060672;28;20081;-75
2023/03/07 00:22:41;;;;;;;4.78;2.72;;;;;;;;;;5059086;28;20411;-74
2023/03/07 00:25:08;;;;;;;6.53;3.28;;;;;;;;;;5059566;28;20077;-74
2023/03/07 00:27:34;;;;;;;4.70;2.75;;;;;;;;;;5040409;28;20028;-74
2023/03/07 00:30:01;;;;;;;4.75;3.03;;;;;;;;;;5061001;28;20432;-75
2023/03/07 00:32:26;;;;;;;5.05;2.70;;;;;;;;;;5058937;28;20057;-75
2023/03/07 00:34:54;;;;;;;4.47;2.60;;;;;;;;;;5055131;28;20087;-74
2023/03/07 00:37:19;;;;;;;4.63;2.20;;;;;;;;;;5051867;28;20124;-74
2023/03/07 00:39:44;;;;;;;4.72;2.53;;;;;;;;;;5051297;28;20053;-74
2023/03/07 00:42:10;;;;;;;4.95;2.15;;;;;;;;;;5046733;28;20021;-74
2023/03/07 00:44:35;;;;;;;4.45;2.20;;;;;;;;;;5054452;28;20112;-74
2023/03/07 00:47:01;;;;;;;4.55;2.00;;;;;;;;;;5059161;28;20063;-74
2023/03/07 00:49:27;;;;;;;3.65;2.00;;;;;;;;;;5057079;28;20025;-74
2023/03/07 00:51:52;;;;;;;3.58;1.75;;;;;;;;;;5036912;28;20083;-76
2023/03/07 00:54:18;;;;;;;6.15;1.75;;;;;;;;;;5034746;28;20400;-74
2023/03/07 00:56:43;;;;;;;3.38;1.70;;;;;;;;;;5039472;28;20048;-74
2023/03/07 00:59:08;;;;;;;3.95;1.73;;;;;;;;;;5055518;28;20037;-74
2023/03/07 01:01:35;;;;;;;3.40;1.48;;;;;;;;;;5058875;28;20080;-75
2023/03/07 01:04:00;;;;;;;3.00;1.60;;;;;;;;;;5050610;28;20033;-74
2023/03/07 01:06:29;;;;;;;3.95;1.80;;;;;;;;;;5057458;28;20041;-74
2023/03/07 01:08:57;;;;;;;5.10;2.10;;;;;;;;;;5059227;28;20051;-74
2023/03/07 01:11:22;;;;;;;2.88;1.55;;;;;;;;;;5057494;28;20400;-74
2023/03/07 01:13:48;;;;;;;3.55;1.80;;;;;;;;;;5059846;28;20105;-74
2023/03/07 01:16:23;;;;;;;3.08;1.73;;;;;;;;;;5041623;28;20594;-74
2023/03/07 01:18:54;;;;;;;3.40;1.75;;;;;;;;;;5057443;28;20029;-74
2023/03/07 01:21:21;;;;;;;3.50;1.70;;;;;;;;;;5058489;28;20035;-75
2023/03/07 01:23:47;;;;;;;3.90;1.70;;;;;;;;;;5058688;28;20501;-74
2023/03/07 01:26:14;;;;;;;4.47;1.85;;;;;;;;;;5059104;28;20056;-74
2023/03/07 01:28:40;;;;;;;3.58;1.60;;;;;;;;;;5042436;28;20027;-74
2023/03/07 01:31:06;;;;;;;3.72;1.80;;;;;;;;;;5055513;28;20040;-74
2023/03/07 01:33:31;;;;;;;2.60;1.27;;;;;;;;;;5037573;28;20055;-74
2023/03/07 01:35:57;;;;;;;3.13;1.55;;;;;;;;;;5056409;28;20114;-74
2023/03/07 01:38:22;;;;;;;3.35;1.70;;;;;;;;;;5054073;28;20744;-76
2023/03/07 01:40:47;;;;;;;3.20;1.67;;;;;;;;;;5054089;28;20080;-74
2023/03/07 01:43:23;;;;;;;3.65;1.90;;;;;;;;;;5053669;28;20692;-74
2023/03/07 01:45:49;;;;;;;3.42;1.80;;;;;;;;;;5050001;28;20017;-74
2023/03/07 01:48:14;;;;;;;4.82;2.03;;;;;;;;;;5052847;28;20094;-74
2023/03/07 01:50:41;;;;;;;4.65;2.05;;;;;;;;;;5039070;28;20041;-74
2023/03/07 01:53:07;;;;;;;5.03;2.15;;;;;;;;;;5059818;28;20056;-74
2023/03/07 01:55:34;;;;;;;4.43;2.40;;;;;;;;;;5037456;28;20479;-74
2023/03/07 01:58:05;;;;;;;4.32;2.28;;;;;;;;;;5056272;28;20029;-75
2023/03/07 02:00:30;;;;;;;4.38;2.50;;;;;;;;;;5051249;28;20481;-75
2023/03/07 02:03:29;;;;;;;5.03;2.92;;;;;;;;;;5054499;28;20059;-74
2023/03/07 02:05:58;;;;;;;5.03;2.95;;;;;;;;;;5018990;28;20396;-74
2023/03/07 02:08:26;;;;;;;6.78;3.45;;;;;;;;;;5040833;28;20029;-74
2023/03/07 02:10:52;;;;;;;5.57;3.50;;;;;;;;;;5054713;28;20124;-74
2023/03/07 02:13:18;;;;;;;6.13;3.75;;;;;;;;;;5021445;28;20056;-74
2023/03/07 02:15:43;;;;;;;5.53;3.72;;;;;;;;;;5057728;28;20028;-74
2023/03/07 02:18:13;;;;;;;6.53;4.63;;;;;;;;;;5056317;28;20021;-75
2023/03/07 02:20:47;;;;;;;9.55;4.68;;;;;;;;;;5056934;28;20031;-74
2023/03/07 02:23:22;;;;;;;8.13;4.85;;;;;;;;;;5040371;28;20031;-74
2023/03/07 02:26:03;;;;;;;8.57;4.78;;;;;;;;;;5056076;28;20025;-74
2023/03/07 02:28:28;;;;;;;8.07;4.93;;;;;;;;;;5039843;28;20393;-74
2023/03/07 02:30:56;;;;;;;7.00;4.97;;;;;;;;;;5057872;28;20025;-74
2023/03/07 02:33:23;;;;;;;9.00;5.68;;;;;;;;;;5041202;28;20401;-75
2023/03/07 02:35:53;;;;;;;7.72;5.20;;;;;;;;;;5055779;28;20397;-75
2023/03/07 02:38:20;;;;;;;8.80;5.40;;;;;;;;;;5039007;28;20056;-75
2023/03/07 02:40:45;;;;;;;7.40;5.45;;;;;;;;;;5038867;28;20111;-75
2023/03/07 02:43:11;;;;;;;8.82;5.90;;;;;;;;;;5032527;28;20539;-74
2023/03/07 02:45:36;;;;;;;9.07;6.18;;;;;;;;;;5032869;28;20056;-75
2023/03/07 02:48:02;;;;;;;8.82;5.68;;;;;;;;;;5055892;28;20060;-74
2023/03/07 02:50:27;;;;;;;8.50;5.78;;;;;;;;;;5039135;28;20028;-74
2023/03/07 02:52:53;;;;;;;10.38;5.68;;;;;;;;;;5033346;28;20056;-74
2023/03/07 02:55:18;;;;;;;9.50;5.65;;;;;;;;;;5056967;28;20024;-74
2023/03/07 02:57:43;;;;;;;9.23;5.85;;;;;;;;;;5049713;28;20546;-74
2023/03/07 03:00:11;;;;;;;8.68;5.47;;;;;;;;;;5059763;28;20032;-74
2023/03/07 03:02:36;;;;;;;9.63;5.95;;;;;;;;;;5053819;28;20017;-74
2023/03/07 03:05:03;;;;;;;10.45;5.85;;;;;;;;;;5058374;28;20053;-74
2023/03/07 03:07:28;;;;;;;10.05;6.38;;;;;;;;;;5056399;28;20037;-74
2023/03/07 03:09:54;;;;;;;10.75;6.32;;;;;;;;;;5059374;28;20025;-75
2023/03/07 03:12:19;;;;;;;9.55;5.85;;;;;;;;;;5041372;28;20024;-75
2023/03/07 03:14:45;;;;;;;9.43;6.10;;;;;;;;;;5056789;28;20060;-74
2023/03/07 03:17:10;;;;;;;11.70;6.28;;;;;;;;;;5038234;28;20097;-74
2023/03/07 03:19:36;;;;;;;9.82;5.70;;;;;;;;;;5029060;28;20094;-75
2023/03/07 03:22:02;;;;;;;8.95;5.65;;;;;;;;;;5048381;28;20025;-75
2023/03/07 03:24:27;;;;;;;10.45;5.75;;;;;;;;;;5053172;28;20481;-74
2023/03/07 03:26:56;;;;;;;8.18;4.95;;;;;;;;;;5043128;28;20088;-74
2023/03/07 03:29:22;;;;;;;10.05;6.05;;;;;;;;;;5059850;28;20029;-74
2023/03/07 03:31:48;;;;;;;9.30;5.35;;;;;;;;;;5056849;28;20032;-74
2023/03/07 03:34:13;;;;;;;8.73;5.15;;;;;;;;;;5059267;28;20053;-74
2023/03/07 03:36:39;;;;;;;8.82;4.95;;;;;;;;;;5056283;28;20473;-74
2023/03/07 03:39:09;;;;;;;7.68;4.90;;;;;;;;;;5056987;28;20057;-74
2023/03/07 03:41:35;;;;;;;7.60;4.65;;;;;;;;;;5060539;28;20081;-74
2023/03/07 03:44:01;;;;;;;8.35;5.07;;;;;;;;;;5040703;28;20063;-74
2023/03/07 03:46:26;;;;;;;8.90;5.13;;;;;;;;;;5037802;28;20028;-74
2023/03/07 03:48:53;;;;;;;8.55;4.30;;;;;;;;;;5040335;28;20032;-74
2023/03/07 03:51:19;;;;;;;8.00;4.70;;;;;;;;;;5054357;28;20036;-74
2023/03/07 03:53:44;;;;;;;7.22;4.68;;;;;;;;;;5057694;28;20036;-75
2023/03/07 03:56:16;;;;;;;8.32;4.50;;;;;;;;;;5058444;28;20032;-75
2023/03/07 03:58:42;;;;;;;7.03;4.50;;;;;;;;;;5039523;28;20489;-74
2023/03/07 04:01:10;;;;;;;9.27;4.40;;;;;;;;;;5041452;28;20029;-74
2023/03/07 04:03:37;;;;;;;7.57;4.25;;;;;;;;;;5053066;28;20025;-74
2023/03/07 04:06:08;;;;;;;7.72;4.72;;;;;;;;;;5056485;28;20025;-74
2023/03/07 04:08:34;;;;;;;8.30;4.35;;;;;;;;;;5056109;28;20029;-74
2023/03/07 04:11:00;;;;;;;7.60;4.55;;;;;;;;;;5057727;28;20104;-74
2023/03/07 04:13:26;;;;;;;6.78;4.05;;;;;;;;;;5043273;28;20048;-74
2023/03/07 04:15:53;;;;;;;5.80;3.75;;;;;;;;;;5056540;28;20025;-74
2023/03/07 04:18:19;;;;;;;7.07;3.55;;;;;;;;;;5053567;28;20377;-74
2023/03/07 04:20:46;;;;;;;6.18;3.80;;;;;;;;;;5031649;28;20021;-74
2023/03/07 04:23:11;;;;;;;6.25;3.88;;;;;;;;;;5055755;28;20244;-74
2023/03/07 04:25:37;;;;;;;5.38;3.45;;;;;;;;;;5033789;28;20032;-74
2023/03/07 04:28:03;;;;;;;6.72;3.30;;;;;;;;;;5056203;28;20036;-74
2023/03/07 04:30:28;;;;;;;4.90;2.90;;;;;;;;;;5051908;28;20025;-74
2023/03/07 04:32:53;;;;;;;7.28;3.38;;;;;;;;;;5055636;28;20032;-74
2023/03/07 04:35:19;;;;;;;5.68;3.42;;;;;;;;;;5035315;28;20393;-73
2023/03/07 04:37:45;;;;;;;5.47;3.00;;;;;;;;;;5037678;28;20117;-74
2023/03/07 04:40:10;;;;;;;4.68;3.03;;;;;;;;;;5054317;28;20021;-73
2023/03/07 04:42:36;;;;;;;6.72;3.45;;;;;;;;;;5055073;28;20025;-73
2023/03/07 04:45:02;;;;;;;7.63;3.70;;;;;;;;;;5052482;28;20043;-75
2023/03/07 04:47:27;;;;;;;6.32;3.22;;;;;;;;;;5051673;28;20111;-74
2023/03/07 04:49:53;;;;;;;7.13;3.38;;;;;;;;;;5055967;28;20021;-74
2023/03/07 04:52:18;;;;;;;7.38;3.50;;;;;;;;;;5032437;28;20163;-74
2023/03/07 04:54:44;;;;;;;5.45;3.15;;;;;;;;;;5034687;28;20078;-74
2023/03/07 04:57:09;;;;;;;7.38;3.92;;;;;;;;;;5055780;28;20071;-74
2023/03/07 04:59:37;;;;;;;7.78;4.00;;;;;;;;;;5051907;28;20036;-74
2023/03/07 05:02:05;;;;;;;6.57;3.67;;;;;;;;;;5032902;28;20168;-74
2023/03/07 05:04:31;;;;;;;6.13;4.00;;;;;;;;;;5048740;28;20053;-75
2023/03/07 05:06:56;;;;;;;7.47;4.38;;;;;;;;;;5052760;28;20036;-74
2023/03/07 05:09:21;;;;;;;8.32;4.22;;;;;;;;;;5037105;28;20029;-73
2023/03/07 05:11:47;;;;;;;8.57;4.50;;;;;;;;;;5053133;28;20017;-73
2023/03/07 05:14:12;;;;;;;7.97;4.45;;;;;;;;;;5040289;28;20469;-73
2023/03/07 05:16:38;;;;;;;7.63;4.60;;;;;;;;;;5037318;28;20242;-73
2023/03/07 05:19:03;;;;;;;7.85;4.68;;;;;;;;;;5057571;28;20402;-73
2023/03/07 05:21:28;;;;;;;6.72;4.30;;;;;;;;;;5052233;28;20025;-74
2023/03/07 05:23:54;;;;;;;7.93;4.40;;;;;;;;;;5057329;28;20036;-74
2023/03/07 05:26:19;;;;;;;7.18;4.35;;;;;;;;;;5023209;28;20061;-74
2023/03/07 05:28:46;;;;;;;6.75;4.15;;;;;;;;;;5040249;28;20017;-74
2023/03/07 05:31:11;;;;;;;6.20;3.58;;;;;;;;;;5056269;28;20029;-73
2023/03/07 05:33:36;;;;;;;6.63;3.90;;;;;;;;;;5055237;28;20063;-73
2023/03/07 05:36:02;;;;;;;6.93;3.65;;;;;;;;;;5033963;28;20094;-74
2023/03/07 05:38:28;;;;;;;5.53;3.50;;;;;;;;;;5051409;28;20027;-74
2023/03/07 05:40:53;;;;;;;6.22;3.50;;;;;;;;;;5038580;28;20046;-73
2023/03/07 05:43:18;;;;;;;5.20;2.88;;;;;;;;;;5034723;28;20470;-74
2023/03/07 05:45:44;;;;;;;5.03;2.40;;;;;;;;;;5051264;28;20024;-74
2023/03/07 05:48:09;;;;;;;3.45;2.00;;;;;;;;;;5056188;28;20538;-73
2023/03/07 05:50:36;;;;;;;3.47;1.90;;;;;;;;;;5055420;28;20044;-73
2023/03/07 05:53:03;;;;;;;3.70;1.88;;;;;;;;;;5052477;28;20017;-73
2023/03/07 05:55:28;;;;;;;4.60;2.58;;;;;;;;;;5042337;28;20401;-73
2023/03/07 05:57:53;;;;;;;3.97;2.15;;;;;;;;;;5032012;28;20033;-74
2023/03/07 06:00:19;;;;;;;5.00;2.30;;;;;;;;;;5055487;28;20358;-74
2023/03/07 06:02:45;;;;;;;4.35;2.05;;;;;;;;;;5035538;28;20027;-74
2023/03/07 06:05:10;;;;;;;4.90;2.03;;;;;;;;;;5032907;28;20037;-74
2023/03/07 06:07:36;;;;;;;3.33;1.85;;;;;;;;;;5054091;28;20028;-74
2023/03/07 06:10:01;;;;;;;4.97;2.40;;;;;;;;;;5055941;28;20028;-74
2023/03/07 06:12:26;;;;;;;5.53;2.20;;;;;;;;;;5053093;28;20342;-73
2023/03/07 06:14:52;;;;;;;3.45;1.95;;;;;;;;;;5021527;28;20036;-74
2023/03/07 06:17:17;;;;;;;3.92;1.92;;;;;;;;;;5051381;28;20465;-74
2023/03/07 06:19:43;;;;;;;4.72;2.22;;;;;;;;;;5049557;28;20029;-74
2023/03/07 06:22:08;;;;;;;5.10;2.58;;;;;;;;;;5047904;28;20021;-74
2023/03/07 06:24:33;;;;;;;4.50;2.40;;;;;;;;;;5038496;28;20089;-73
2023/03/07 06:26:59;;;;;;;7.03;2.63;;;;;;;;;;5055357;28;20020;-74
2023/03/07 06:29:25;;;;;;;5.97;2.92;;;;;;;;;;5050350;28;20029;-74
2023/03/07 06:31:50;;;;;;;5.32;2.88;;;;;;;;;;5034420;28;20624;-74
2023/03/07 06:34:16;;;;;;;7.40;3.60;;;;;;;;;;5034283;28;20078;-74
2023/03/07 06:36:41;;;;;;;7.75;3.35;;;;;;;;;;5041492;28;20029;-74
2023/03/07 06:39:06;;;;;;;6.53;3.95;;;;;;;;;;5033012;28;20064;-74
2023/03/07 06:41:32;;;;;;;6.85;4.10;;;;;;;;;;5046052;28;20029;-75
2023/03/07 06:43:57;;;;;;;7.15;3.92;;;;;;;;;;5026870;28;20490;-74
2023/03/07 06:46:23;;;;;;;8.05;4.43;;;;;;;;;;5046901;28;20033;-74
2023/03/07 06:48:50;;;;;;;8.85;4.80;;;;;;;;;;5047431;28;20021;-74
2023/03/07 06:51:16;;;;;;;5.80;3.67;;;;;;;;;;5029238;28;20044;-74
2023/03/07 06:53:42;;;;;;;6.57;3.40;;;;;;;;;;5046104;28;20093;-74
2023/03/07 06:56:07;;;;;;;5.25;3.35;;;;;;;;;;5054612;28;20048;-74
2023/03/07 06:58:33;;;;;;;5.55;3.20;;;;;;;;;;5052159;28;20068;-74
2023/03/07 07:00:58;;;;;;;6.78;3.20;;;;;;;;;;5048201;28;20761;-74
2023/03/07 07:03:24;;;;;;;3.58;1.77;;;;;;;;;;5049953;28;20393;-74
2023/03/07 07:05:49;;;;;;;2.58;1.30;;;;;;;;;;5040534;28;20017;-74
2023/03/07 07:08:15;;;;;;;3.00;0.90;;;;;;;;;;5032633;28;20072;-74
2023/03/07 07:10:40;;;;;;;1.88;0.80;;;;;;;;;;5047650;28;20031;-74
2023/03/07 07:13:06;;;;;;;1.48;0.77;;;;;;;;;;5028254;28;20219;-74
2023/03/07 07:15:31;;;;;;;1.42;0.70;;;;;;;;;;5041288;28;20029;-74
2023/03/07 07:17:57;;;;;;;1.77;0.52;;;;;;;;;;5028498;28;20040;-75
2023/03/07 07:20:23;;;;;;;1.13;0.50;;;;;;;;;;5032951;28;20025;-74
2023/03/07 07:22:48;;;;;;;0.70;0.40;;;;;;;;;;5037778;28;20024;-74
2023/03/07 07:25:14;;;;;;;1.65;0.55;;;;;;;;;;5037980;28;20056;-74
2023/03/07 07:27:39;;;;;;;1.27;0.50;;;;;;;;;;5054410;28;20032;-74
2023/03/07 07:30:06;;;;;;;0.85;0.40;;;;;;;;;;5033483;28;20060;-74
2023/03/07 07:32:31;;;;;;;1.98;0.60;;;;;;;;;;5054444;28;20151;-74
2023/03/07 07:34:57;;;;;;;1.92;0.52;;;;;;;;;;5054348;28;20492;-74
2023/03/07 07:37:22;;;;;;;1.13;0.60;;;;;;;;;;5055929;28;20032;-74
2023/03/07 07:39:49;;;;;;;1.13;0.60;;;;;;;;;;5055567;28;20025;-74
2023/03/07 07:42:15;;;;;;;1.83;0.70;;;;;;;;;;5057242;28;20059;-75
2023/03/07 07:44:40;;;;;;;0.70;0.50;;;;;;;;;;5037470;28;20028;-74
2023/03/07 07:47:06;;;;;;;3.15;0.60;;;;;;;;;;5050722;28;20055;-74
2023/03/07 07:49:31;;;;;;;1.33;0.55;;;;;;;;;;5058384;28;20127;-74
2023/03/07 07:51:57;;;;;;;1.27;0.65;;;;;;;;;;5047282;28;20037;-74
2023/03/07 07:54:23;;;;;;;1.40;0.70;;;;;;;;;;5061469;28;20056;-74
2023/03/07 07:56:49;;;;;;;0.98;0.65;;;;;;;;;;5054965;28;20032;-74
2023/03/07 07:59:14;;;;;;;1.08;0.70;;;;;;;;;;5050468;28;20025;-74
2023/03/07 08:01:39;;;;;;;1.38;0.73;;;;;;;;;;5042048;28;20051;-74
2023/03/07 08:04:05;;;;;;;4.03;1.48;;;;;;;;;;5053642;28;20024;-74
2023/03/07 08:06:30;;;;;;;1.48;0.95;;;;;;;;;;5056283;28;20537;-74
2023/03/07 08:08:56;;;;;;;2.47;0.98;;;;;;;;;;5033613;28;20128;-74
2023/03/07 08:11:22;;;;;;;1.73;0.77;;;;;;;;;;5030412;28;20047;-74
2023/03/07 08:13:48;;;;;;;2.00;0.80;;;;;;;;;;5060094;28;20028;-74
2023/03/07 08:16:17;;;;;;;1.45;0.70;;;;;;;;;;5034217;28;20033;-75
2023/03/07 08:18:47;;;;;;;2.20;0.90;;;;;;;;;;5053624;28;20032;-75
2023/03/07 08:21:13;;;;;;;2.47;1.00;;;;;;;;;;5029271;28;20115;-74
2023/03/07 08:23:38;;;;;;;1.52;0.90;;;;;;;;;;5034156;28;21430;-74
2023/03/07 08:26:07;;;;;;;1.83;0.98;;;;;;;;;;5043263;28;20141;-74
2023/03/07 08:28:33;;;;;;;2.85;1.00;;;;;;;;;;5034732;28;20574;-74
2023/03/07 08:31:05;;;;;;;2.55;1.08;;;;;;;;;;5039451;28;20562;-74
2023/03/07 08:33:31;;;;;;;1.77;0.90;;;;;;;;;;5054849;28;20473;-74
2023/03/07 08:35:58;;;;;;;2.35;1.00;;;;;;;;;;5060967;28;20104;-74
2023/03/07 08:38:25;;;;;;;2.30;1.15;;;;;;;;;;5045324;28;20078;-74
2023/03/07 08:40:51;;;;;;;1.08;0.80;;;;;;;;;;5043457;28;20051;-74
2023/03/07 08:43:16;;;;;;;2.08;1.10;;;;;;;;;;5047120;28;20477;-74
2023/03/07 08:45:41;;;;;;;4.32;1.17;;;;;;;;;;5039031;28;20025;-74
2023/03/07 08:48:08;;;;;;;2.25;1.10;;;;;;;;;;5060973;28;20110;-74
2023/03/07 08:50:33;;;;;;;2.22;1.20;;;;;;;;;;5063839;28;20025;-74
2023/03/07 08:52:59;;;;;;;2.00;1.08;;;;;;;;;;5064469;28;20055;-73
2023/03/07 08:55:24;;;;;;;2.53;1.08;;;;;;;;;;5047017;28;20017;-74
2023/03/07 08:57:50;;;;;;;2.90;1.10;;;;;;;;;;5045761;28;20021;-74
2023/03/07 09:00:16;;;;;;;3.78;1.45;;;;;;;;;;5063415;28;20110;-74
2023/03/07 09:02:42;;;;;;;2.25;1.20;;;;;;;;;;5065342;28;20106;-74
2023/03/07 09:05:08;;;;;;;2.70;1.25;;;;;;;;;;5061033;28;20029;-74
2023/03/07 09:07:33;;;;;;;2.55;0.93;;;;;;;;;;5059580;28;20466;-73
2023/03/07 09:09:58;;;;;;;2.30;1.25;;;;;;;;;;5064432;28;20028;-73
2023/03/07 09:12:24;;;;;;;2.75;1.38;;;;;;;;;;5055684;28;20029;-73
2023/03/07 09:14:52;;;;;;;2.80;1.38;;;;;;;;;;5061999;28;20484;-73
2023/03/07 09:17:18;;;;;;;3.33;1.30;;;;;;;;;;5061475;28;20031;-74
2023/03/07 09:19:43;;;;;;;2.95;1.50;;;;;;;;;;5059805;28;20079;-74
2023/03/07 09:22:08;;;;;;;2.92;1.52;;;;;;;;;;5060975;28;20025;-74
2023/03/07 09:24:34;;;;;;;3.45;1.70;;;;;;;;;;5048104;28;20409;-73
2023/03/07 09:26:59;;;;;;;3.63;2.00;;;;;;;;;;5041503;28;20040;-74
2023/03/07 09:29:25;;;;;;;3.55;2.00;;;;;;;;;;5043821;28;20067;-74
2023/03/07 09:31:50;;;;;;;4.00;2.10;;;;;;;;;;5058466;28;20018;-73
2023/03/07 09:34:16;;;;;;;4.28;2.38;;;;;;;;;;5061868;28;20032;-74
2023/03/07 09:36:41;;;;;;;4.15;2.17;;;;;;;;;;5065543;28;20021;-73
2023/03/07 09:39:07;;;;;;;3.30;2.00;;;;;;;;;;5061439;28;20033;-75
2023/03/07 09:41:32;;;;;;;4.32;2.15;;;;;;;;;;5064124;28;20037;-73
2023/03/07 09:44:03;;;;;;;5.43;2.28;;;;;;;;;;5044097;28;20029;-74
2023/03/07 09:47:09;;;;;;;3.60;2.10;;;;;;;;;;5057619;28;20029;-73
2023/03/07 09:49:44;;;;;;;4.25;2.20;;;;;;;;;;5064337;28;20384;-73
2023/03/07 09:52:14;;;;;;;4.20;2.03;;;;;;;;;;5059908;28;20099;-74
2023/03/07 09:54:49;;;;;;;4.00;2.20;;;;;;;;;;5062135;28;20552;-73
2023/03/07 09:57:23;;;;;;;4.28;2.28;;;;;;;;;;5065559;28;20025;-74
2023/03/07 09:59:54;;;;;;;4.05;2.25;;;;;;;;;;5065001;28;20481;-74
2023/03/07 10:02:33;;;;;;;3.47;1.98;;;;;;;;;;5063282;28;20056;-74
2023/03/07 10:05:36;;;;;;;3.75;1.77;;;;;;;;;;5042861;28;20024;-74
2023/03/07 10:08:03;;;;;;;3.17;1.63;;;;;;;;;;5059835;28;20047;-73
2023/03/07 10:10:46;;;;;;;3.75;1.60;;;;;;;;;;5025631;28;20145;-74
2023/03/07 10:13:27;;;;;;;2.03;1.05;;;;;;;;;;5036280;28;20017;-73
2023/03/07 10:15:59;;;;;;;3.10;1.20;;;;;;;;;;5038503;28;20440;-73
2023/03/07 10:18:49;;;;;;;2.75;1.40;;;;;;;;;;5064000;28;20047;-75
2023/03/07 10:21:20;;;;;;;3.42;1.30;;;;;;;;;;5062889;28;20037;-75
2023/03/07 10:23:54;;;;;;;2.60;1.42;;;;;;;;;;5058083;28;20024;-75
2023/03/07 10:26:57;;;;;;;3.17;1.45;;;;;;;;;;5041044;28;20473;-74
2023/03/07 10:29:27;;;;;;;4.53;1.40;;;;;;;;;;5064223;28;20039;-74
2023/03/07 10:32:13;;;;;;;2.72;1.38;;;;;;;;;;5060525;28;20029;-75
2023/03/07 10:34:39;;;;;;;2.28;1.05;;;;;;;;;;5060553;28;20469;-74
2023/03/07 10:37:17;;;;;;;2.17;1.10;;;;;;;;;;5059398;28;20103;-74
2023/03/07 10:39:55;;;;;;;3.60;1.38;;;;;;;;;;5061920;28;20025;-73
2023/03/07 10:42:22;;;;;;;2.85;1.30;;;;;;;;;;5047001;28;20039;-73
2023/03/07 10:44:49;;;;;;;2.47;1.15;;;;;;;;;;5043110;28;20025;-73
2023/03/07 10:47:21;;;;;;;3.67;1.40;;;;;;;;;;5063876;28;20031;-74
2023/03/07 10:49:49;;;;;;;2.38;1.30;;;;;;;;;;5060764;28;20484;-74
2023/03/07 10:52:31;;;;;;;3.10;1.50;;;;;;;;;;5060058;28;20564;-73
2023/03/07 10:55:34;;;;;;;2.25;1.17;;;;;;;;;;5058942;28;20029;-74
2023/03/07 10:58:12;;;;;;;2.92;1.63;;;;;;;;;;5059012;28;20025;-73
2023/03/07 11:00:37;;;;;;;3.10;1.50;;;;;;;;;;5057384;28;20021;-73
2023/03/07 11:03:03;;;;;;;3.55;1.40;;;;;;;;;;5059630;28;20028;-74
2023/03/07 11:05:35;;;;;;;3.33;1.30;;;;;;;;;;5023653;28;20132;-73
2023/03/07 11:08:20;;;;;;;3.75;1.20;;;;;;;;;;5059412;28;20029;-74
2023/03/07 11:10:45;;;;;;;1.92;0.85;;;;;;;;;;5058972;28;20029;-74
2023/03/07 11:13:15;;;;;;;1.85;0.80;;;;;;;;;;5052491;28;20159;-74
2023/03/07 11:15:40;;;;;;;1.73;0.77;;;;;;;;;;5053032;28;20020;-73
2023/03/07 11:18:27;;;;;;;2.17;0.93;;;;;;;;;;5055098;28;20276;-74
2023/03/07 11:20:53;;;;;;;1.90;1.00;;;;;;;;;;5056250;28;20033;-75
2023/03/07 11:23:24;;;;;;;2.53;1.27;;;;;;;;;;5060192;28;20021;-73
2023/03/07 11:25:52;;;;;;;3.33;1.20;;;;;;;;;;5060863;28;20021;-74
2023/03/07 11:28:23;;;;;;;2.88;1.48;;;;;;;;;;5060995;28;20025;-74
2023/03/07 11:30:58;;;;;;;2.58;1.45;;;;;;;;;;5065173;28;20477;-73
2023/03/07 11:33:34;;;;;;;2.33;1.20;;;;;;;;;;5056267;28;20515;-73
2023/03/07 11:36:10;;;;;;;2.03;1.10;;;;;;;;;;5044702;28;20029;-74
2023/03/07 11:39:00;;;;;;;2.33;1.20;;;;;;;;;;5046646;28;20028;-74
2023/03/07 11:41:41;;;;;;;2.33;1.15;;;;;;;;;;5062114;28;20120;-74
2023/03/07 11:44:21;;;;;;;2.45;1.25;;;;;;;;;;5060781;28;20040;-75
2023/03/07 11:47:38;;;;;;;2.88;1.20;;;;;;;;;;5060118;28;20025;-75
2023/03/07 11:50:16;;;;;;;2.30;1.20;;;;;;;;;;5001390;28;20076;-73
2023/03/07 11:52:57;;;;;;;2.05;1.05;;;;;;;;;;5043133;28;20041;-74
2023/03/07 11:55:48;;;;;;;4.32;1.30;;;;;;;;;;5064528;28;20036;-74
2023/03/07 11:58:31;;;;;;;2.22;1.05;;;;;;;;;;5039140;28;20025;-73
2023/03/07 12:01:06;;;;;;;2.40;1.27;;;;;;;;;;5046224;28;20119;-74
2023/03/07 12:03:40;;;;;;;2.50;1.20;;;;;;;;;;5061278;28;20024;-74
2023/03/07 12:06:08;;;;;;;3.65;1.60;;;;;;;;;;5059720;28;20134;-74
2023/03/07 12:08:43;;;;;;;3.45;1.50;;;;;;;;;;5048785;28;20116;-74
2023/03/07 12:11:35;;;;;;;2.28;1.23;;;;;;;;;;5045350;28;20032;-74
2023/03/07 12:14:48;;;;;;;3.05;1.40;;;;;;;;;;5046450;28;20100;-74
2023/03/07 12:17:46;;;;;;;2.10;1.17;;;;;;;;;;4997029;28;20396;-74
2023/03/07 12:20:30;;;;;;;2.28;1.25;;;;;;;;;;5036150;28;20060;-74
2023/03/07 12:23:18;;;;;;;2.95;1.50;;;;;;;;;;5054865;28;20025;-74
2023/03/07 12:25:50;;;;;;;3.33;1.45;;;;;;;;;;5061282;28;20388;-74
2023/03/07 12:28:17;;;;;;;2.80;1.47;;;;;;;;;;5059646;28;20025;-74
2023/03/07 12:30:49;;;;;;;3.42;1.67;;;;;;;;;;5038490;28;20029;-75
2023/03/07 12:33:49;;;;;;;3.03;1.65;;;;;;;;;;5059530;28;20711;-74
2023/03/07 12:36:23;;;;;;;3.78;1.70;;;;;;;;;;5058063;28;20035;-74
2023/03/07 12:38:58;;;;;;;4.63;1.83;;;;;;;;;;5062248;28;20491;-74
2023/03/07 12:41:38;;;;;;;4.53;2.08;;;;;;;;;;5057899;28;20025;-74
2023/03/07 12:44:10;;;;;;;2.90;1.60;;;;;;;;;;5063075;28;20028;-74
2023/03/07 12:47:01;;;;;;;4.38;2.33;;;;;;;;;;5056393;28;20036;-74
2023/03/07 12:49:42;;;;;;;6.18;3.72;;;;;;;;;;5037399;28;20051;-74
2023/03/07 12:52:16;;;;;;;4.55;2.05;;;;;;;;;;5060990;28;20091;-74
2023/03/07 12:54:54;;;;;;;3.03;1.38;;;;;;;;;;5059829;28;20053;-74
2023/03/07 12:57:36;;;;;;;1.42;0.75;;;;;;;;;;5061831;28;20052;-73
2023/03/07 13:00:06;;;;;;;1.77;0.80;;;;;;;;;;5038448;28;20021;-74
2023/03/07 13:02:39;;;;;;;2.00;0.70;;;;;;;;;;5042288;28;20044;-74
2023/03/07 13:05:05;;;;;;;3.75;1.05;;;;;;;;;;5042783;28;20025;-74
2023/03/07 13:07:32;;;;;;;2.72;0.60;;;;;;;;;;5059464;28;20033;-74
2023/03/07 13:10:02;;;;;;;1.73;0.47;;;;;;;;;;5061903;28;20063;-74
2023/03/07 13:12:28;;;;;;;1.25;0.70;;;;;;;;;;5059323;28;20025;-74
2023/03/07 13:15:16;;;;;;;1.15;0.60;;;;;;;;;;5058531;28;20591;-75
2023/03/07 13:17:42;;;;;;;1.52;0.60;;;;;;;;;;5022868;28;20040;-74
2023/03/07 13:20:26;;;;;;;2.45;0.90;;;;;;;;;;5044521;28;20033;-73
2023/03/07 13:22:52;;;;;;;1.23;0.60;;;;;;;;;;5060522;28;20025;-74
2023/03/07 13:25:24;;;;;;;2.35;0.63;;;;;;;;;;5043830;28;20080;-74
2023/03/07 13:27:58;;;;;;;1.33;0.68;;;;;;;;;;5041657;28;20496;-74
2023/03/07 13:30:28;;;;;;;2.40;0.47;;;;;;;;;;5060160;28;20029;-74
2023/03/07 13:32:55;;;;;;;3.13;0.73;;;;;;;;;;5057901;28;20023;-74
2023/03/07 13:35:29;;;;;;;1.38;0.40;;;;;;;;;;5055105;28;20021;-74
2023/03/07 13:37:59;;;;;;;4.78;0.50;;;;;;;;;;5060656;28;20037;-74
2023/03/07 13:40:36;;;;;;;2.50;0.60;;;;;;;;;;5041398;28;20027;-73
2023/03/07 13:43:22;;;;;;;1.45;0.60;;;;;;;;;;5053616;28;20021;-74
2023/03/07 13:46:24;;;;;;;1.77;0.60;;;;;;;;;;5023877;28;20037;-76
2023/03/07 13:48:53;;;;;;;2.42;0.70;;;;;;;;;;5046427;28;20025;-74
2023/03/07 13:51:19;;;;;;;2.88;0.73;;;;;;;;;;5039283;28;20033;-74
2023/03/07 13:53:58;;;;;;;1.42;0.52;;;;;;;;;;5053667;28;20380;-74
2023/03/07 13:56:27;;;;;;;1.63;0.60;;;;;;;;;;5038008;28;20025;-74
2023/03/07 13:59:11;;;;;;;1.35;0.52;;;;;;;;;;5058364;28;20029;-74
2023/03/07 14:01:48;;;;;;;2.50;0.60;;;;;;;;;;5059152;28;20025;-75
2023/03/07 14:04:26;;;;;;;2.20;0.80;;;;;;;;;;5042403;28;20448;-74
2023/03/07 14:07:01;;;;;;;1.70;0.80;;;;;;;;;;5061251;28;20031;-74
2023/03/07 14:09:46;;;;;;;4.18;1.08;;;;;;;;;;5061551;28;20678;-74
2023/03/07 14:12:39;;;;;;;2.22;0.93;;;;;;;;;;5044245;28;20029;-74
2023/03/07 14:15:26;;;;;;;1.83;0.98;;;;;;;;;;5057082;28;20094;-73
2023/03/07 14:18:09;;;;;;;3.13;0.95;;;;;;;;;;5052177;28;20508;-74
2023/03/07 14:20:47;;;;;;;2.95;1.23;;;;;;;;;;5058738;28;20029;-74
2023/03/07 14:23:50;;;;;;;3.70;1.40;;;;;;;;;;5050386;28;20032;-74
2023/03/07 14:26:15;;;;;;;1.70;0.82;;;;;;;;;;5030018;28;20041;-75
2023/03/07 14:29:01;;;;;;;1.67;0.70;;;;;;;;;;5055812;28;20079;-74
2023/03/07 14:31:35;;;;;;;2.65;0.52;;;;;;;;;;5040810;28;20036;-74
2023/03/07 14:34:02;;;;;;;1.65;0.50;;;;;;;;;;5056857;28;20126;-74
2023/03/07 14:36:30;;;;;;;1.40;0.63;;;;;;;;;;5036368;28;20016;-74
2023/03/07 14:39:03;;;;;;;1.00;0.52;;;;;;;;;;5058612;28;20354;-74
2023/03/07 14:41:46;;;;;;;1.35;0.68;;;;;;;;;;5061549;28;20040;-74
2023/03/07 14:45:06;;;;;;;1.10;0.40;;;;;;;;;;5055166;28;20491;-74
2023/03/07 14:47:56;;;;;;;1.13;0.50;;;;;;;;;;4969734;28;20026;-74
2023/03/07 14:50:26;;;;;;;1.33;0.73;;;;;;;;;;5051986;28;20057;-74
2023/03/07 14:53:01;;;;;;;1.02;0.47;;;;;;;;;;5042853;28;20121;-74
2023/03/07 14:55:34;;;;;;;0.80;0.47;;;;;;;;;;5048327;28;20575;-74
2023/03/07 14:57:59;;;;;;;1.20;0.57;;;;;;;;;;5067095;28;20029;-74
2023/03/07 15:00:31;;;;;;;0.60;0.32;;;;;;;;;;5061832;28;20060;-74